Time;durP1;ratioP1;P1;durP2;ratioP2;P2;SDS_P1;SDS_P2;PMS_P1;PMS_P2;Temp;Humidity;BMP_temperature;BMP_pressure;BME280_temperature;BME280_humidity;BME280_pressure;Samples;Min_cycle;Max_cycle;Signal;HPM_P1;HPM_P2
2022/03/29 00:00:42;;;;;;;32.05;20.35;;;;;;;;;;5057917;28;20463;-73
2022/03/29 00:03:08;;;;;;;31.20;19.80;;;;;;;;;;5058224;28;20056;-73
2022/03/29 00:05:35;;;;;;;32.03;18.77;;;;;;;;;;5056657;28;20056;-74
2022/03/29 00:08:02;;;;;;;32.70;20.38;;;;;;;;;;5057935;28;20107;-73
2022/03/29 00:10:28;;;;;;;33.78;21.02;;;;;;;;;;5057586;28;20049;-73
2022/03/29 00:12:55;;;;;;;29.90;19.60;;;;;;;;;;5058395;28;20049;-73
2022/03/29 00:15:39;;;;;;;32.13;18.83;;;;;;;;;;5057917;28;20040;-73
2022/03/29 00:18:06;;;;;;;31.77;18.80;;;;;;;;;;5057957;28;20045;-73
2022/03/29 00:20:32;;;;;;;34.30;20.35;;;;;;;;;;5057712;28;20520;-73
2022/03/29 00:22:59;;;;;;;30.90;19.70;;;;;;;;;;5058001;28;20049;-73
2022/03/29 00:25:25;;;;;;;30.85;19.08;;;;;;;;;;5058078;28;20111;-73
2022/03/29 00:27:52;;;;;;;33.00;20.67;;;;;;;;;;5058413;28;20099;-73
2022/03/29 00:30:19;;;;;;;30.33;20.20;;;;;;;;;;5057945;28;20365;-73
2022/03/29 00:32:45;;;;;;;30.48;19.20;;;;;;;;;;5057701;28;20095;-74
2022/03/29 00:35:12;;;;;;;31.90;18.83;;;;;;;;;;5057840;28;20077;-73
2022/03/29 00:37:39;;;;;;;29.88;19.52;;;;;;;;;;5057619;28;20085;-73
2022/03/29 00:40:07;;;;;;;34.53;20.95;;;;;;;;;;5057781;28;20048;-74
2022/03/29 00:42:34;;;;;;;35.72;20.67;;;;;;;;;;5057890;28;20089;-74
2022/03/29 00:45:00;;;;;;;30.02;19.27;;;;;;;;;;5057477;28;20554;-73
2022/03/29 00:47:27;;;;;;;29.60;19.50;;;;;;;;;;5057509;28;20087;-74
2022/03/29 00:49:53;;;;;;;33.67;20.67;;;;;;;;;;5056650;28;20088;-74
2022/03/29 00:52:20;;;;;;;34.05;20.20;;;;;;;;;;5054023;28;20072;-74
2022/03/29 00:54:47;;;;;;;38.38;20.90;;;;;;;;;;5054817;28;20124;-74
2022/03/29 00:57:13;;;;;;;33.50;21.35;;;;;;;;;;5054529;28;20531;-74
2022/03/29 00:59:41;;;;;;;33.95;20.40;;;;;;;;;;5054804;28;20114;-74
2022/03/29 01:02:07;;;;;;;31.05;21.02;;;;;;;;;;5054128;28;20053;-74
2022/03/29 01:04:34;;;;;;;36.40;20.73;;;;;;;;;;5054129;28;20057;-74
2022/03/29 01:07:01;;;;;;;35.70;21.52;;;;;;;;;;5054075;28;20084;-74
2022/03/29 01:09:28;;;;;;;34.28;21.45;;;;;;;;;;5054216;28;20053;-74
2022/03/29 01:11:58;;;;;;;32.47;19.42;;;;;;;;;;5054047;28;20049;-74
2022/03/29 01:14:26;;;;;;;33.22;20.58;;;;;;;;;;5054229;28;20133;-74
2022/03/29 01:19:39;;;;;;;32.53;20.48;;;;;;;;;;5022823;28;20084;-74
2022/03/29 01:22:07;;;;;;;34.15;21.58;;;;;;;;;;5048628;28;20095;-73
2022/03/29 01:24:34;;;;;;;35.45;21.75;;;;;;;;;;5053655;28;20053;-74
2022/03/29 01:27:02;;;;;;;34.50;21.27;;;;;;;;;;5053998;28;20084;-74
2022/03/29 01:29:29;;;;;;;33.95;21.75;;;;;;;;;;5053789;28;20084;-74
2022/03/29 01:31:56;;;;;;;33.70;21.50;;;;;;;;;;5053556;28;20084;-74
2022/03/29 01:34:23;;;;;;;35.42;21.73;;;;;;;;;;5053483;28;20091;-74
2022/03/29 01:36:50;;;;;;;38.05;23.38;;;;;;;;;;5052296;28;20084;-74
2022/03/29 01:39:16;;;;;;;35.55;22.48;;;;;;;;;;5053481;28;20081;-74
2022/03/29 01:41:43;;;;;;;36.45;22.85;;;;;;;;;;5053636;28;20098;-74
2022/03/29 01:44:10;;;;;;;37.72;22.63;;;;;;;;;;5053334;28;20128;-74
2022/03/29 01:46:37;;;;;;;36.78;22.17;;;;;;;;;;5053604;28;20080;-74
2022/03/29 01:49:04;;;;;;;40.53;24.83;;;;;;;;;;5053473;28;20055;-74
2022/03/29 01:51:30;;;;;;;43.55;27.73;;;;;;;;;;5052105;28;20098;-74
2022/03/29 01:53:59;;;;;;;44.88;25.50;;;;;;;;;;5052277;28;20084;-74
2022/03/29 01:56:26;;;;;;;36.58;22.08;;;;;;;;;;5051942;28;20551;-75
2022/03/29 01:58:52;;;;;;;36.33;23.13;;;;;;;;;;5053315;28;20091;-75
2022/03/29 02:01:19;;;;;;;37.75;23.45;;;;;;;;;;5053146;28;20084;-75
2022/03/29 02:03:45;;;;;;;36.33;22.48;;;;;;;;;;5052412;28;20132;-74
2022/03/29 02:06:12;;;;;;;36.58;22.25;;;;;;;;;;5052991;28;20488;-74
2022/03/29 02:08:38;;;;;;;38.58;22.52;;;;;;;;;;5052987;28;20052;-74
2022/03/29 02:11:04;;;;;;;34.25;21.33;;;;;;;;;;5053057;28;20103;-74
2022/03/29 02:13:31;;;;;;;33.92;21.90;;;;;;;;;;5052676;28;20080;-74
2022/03/29 02:15:57;;;;;;;35.38;22.30;;;;;;;;;;5052814;28;20099;-74
2022/03/29 02:18:24;;;;;;;38.13;23.00;;;;;;;;;;5052765;28;20128;-74
2022/03/29 02:20:50;;;;;;;37.15;23.55;;;;;;;;;;5052955;28;20076;-74
2022/03/29 02:23:17;;;;;;;42.35;24.63;;;;;;;;;;5045961;28;20095;-73
2022/03/29 02:25:46;;;;;;;43.28;25.20;;;;;;;;;;5051250;28;20183;-73
2022/03/29 02:28:12;;;;;;;37.10;22.95;;;;;;;;;;5052479;28;20571;-73
2022/03/29 02:30:39;;;;;;;40.63;26.23;;;;;;;;;;5052413;28;20080;-73
2022/03/29 02:33:06;;;;;;;39.27;25.20;;;;;;;;;;5052314;28;20052;-73
2022/03/29 02:35:33;;;;;;;37.63;24.30;;;;;;;;;;5052754;28;20056;-73
2022/03/29 02:37:59;;;;;;;42.63;24.73;;;;;;;;;;5052930;28;20076;-73
2022/03/29 02:40:26;;;;;;;39.20;24.40;;;;;;;;;;5052195;28;20075;-73
2022/03/29 02:42:54;;;;;;;38.65;22.50;;;;;;;;;;5051184;28;20512;-73
2022/03/29 02:45:25;;;;;;;38.53;25.05;;;;;;;;;;5052372;28;20111;-72
2022/03/29 02:47:56;;;;;;;41.47;25.33;;;;;;;;;;5052394;28;20084;-72
2022/03/29 02:50:23;;;;;;;40.65;25.80;;;;;;;;;;5052438;28;20114;-72
2022/03/29 02:52:57;;;;;;;37.97;25.30;;;;;;;;;;5052294;28;20053;-72
2022/03/29 02:55:24;;;;;;;39.13;24.17;;;;;;;;;;5052418;28;20206;-73
2022/03/29 02:57:51;;;;;;;37.75;24.02;;;;;;;;;;5052148;28;20076;-73
2022/03/29 03:00:17;;;;;;;39.45;24.02;;;;;;;;;;5052274;28;20095;-72
2022/03/29 03:02:45;;;;;;;43.33;25.90;;;;;;;;;;5051946;28;20048;-73
2022/03/29 03:05:12;;;;;;;38.20;24.35;;;;;;;;;;5051920;28;20408;-73
2022/03/29 03:07:39;;;;;;;38.53;24.55;;;;;;;;;;5051750;28;20479;-73
2022/03/29 03:10:06;;;;;;;39.50;25.02;;;;;;;;;;5050924;28;20053;-73
2022/03/29 03:12:37;;;;;;;35.65;24.50;;;;;;;;;;5050555;28;20531;-73
2022/03/29 03:15:07;;;;;;;39.17;24.88;;;;;;;;;;5051605;28;20095;-73
2022/03/29 03:17:33;;;;;;;37.67;25.08;;;;;;;;;;5052200;28;20091;-73
2022/03/29 03:20:00;;;;;;;36.17;24.10;;;;;;;;;;5050485;28;20079;-73
2022/03/29 03:22:26;;;;;;;39.22;24.98;;;;;;;;;;5051608;28;20081;-72
2022/03/29 03:24:53;;;;;;;37.42;25.17;;;;;;;;;;5051916;28;20480;-73
2022/03/29 03:27:19;;;;;;;40.22;25.30;;;;;;;;;;5051929;28;20069;-72
2022/03/29 03:29:46;;;;;;;36.92;25.63;;;;;;;;;;5051509;28;20077;-72
2022/03/29 03:32:12;;;;;;;40.10;24.95;;;;;;;;;;5051744;28;20102;-73
2022/03/29 03:34:40;;;;;;;34.77;23.70;;;;;;;;;;5051447;28;20057;-73
2022/03/29 03:37:06;;;;;;;36.28;24.45;;;;;;;;;;5051713;28;20049;-73
2022/03/29 03:39:34;;;;;;;35.20;25.13;;;;;;;;;;5051447;28;20536;-72
2022/03/29 03:42:09;;;;;;;39.58;26.25;;;;;;;;;;5050303;28;20045;-73
2022/03/29 03:44:36;;;;;;;40.17;25.70;;;;;;;;;;5051626;28;20076;-73
2022/03/29 03:47:04;;;;;;;39.38;26.10;;;;;;;;;;5051281;28;20096;-73
2022/03/29 03:49:30;;;;;;;35.90;25.83;;;;;;;;;;5051838;28;20084;-73
2022/03/29 03:51:56;;;;;;;41.20;25.42;;;;;;;;;;5051395;28;20128;-73
2022/03/29 03:54:23;;;;;;;39.85;26.38;;;;;;;;;;5051464;28;20053;-73
2022/03/29 03:56:49;;;;;;;42.00;26.38;;;;;;;;;;5051372;28;20076;-73
2022/03/29 03:59:16;;;;;;;44.75;27.77;;;;;;;;;;5051519;28;20037;-73
2022/03/29 04:01:42;;;;;;;41.40;27.45;;;;;;;;;;5051223;28;20529;-73
2022/03/29 04:04:09;;;;;;;42.35;28.15;;;;;;;;;;5051458;28;20488;-73
2022/03/29 04:06:36;;;;;;;39.63;26.92;;;;;;;;;;5051157;28;20084;-73
2022/03/29 04:09:02;;;;;;;45.03;27.52;;;;;;;;;;5051231;28;20084;-72
2022/03/29 04:11:29;;;;;;;43.03;27.38;;;;;;;;;;5050165;28;20453;-72
2022/03/29 04:13:56;;;;;;;42.22;26.45;;;;;;;;;;5051084;28;20077;-72
2022/03/29 04:16:22;;;;;;;39.53;27.58;;;;;;;;;;5051151;28;20136;-72
2022/03/29 04:18:49;;;;;;;44.95;26.95;;;;;;;;;;5051421;28;20075;-72
2022/03/29 04:21:15;;;;;;;38.25;26.38;;;;;;;;;;5051349;28;20045;-72
2022/03/29 04:23:42;;;;;;;41.25;26.50;;;;;;;;;;5051280;28;20132;-72
2022/03/29 04:26:08;;;;;;;40.72;27.38;;;;;;;;;;5051584;28;20539;-72
2022/03/29 04:28:34;;;;;;;39.42;27.02;;;;;;;;;;5054932;28;20508;-72
2022/03/29 04:31:01;;;;;;;37.72;25.10;;;;;;;;;;5054919;28;20099;-72
2022/03/29 04:33:28;;;;;;;39.35;25.58;;;;;;;;;;5054600;28;20136;-72
2022/03/29 04:35:55;;;;;;;40.92;26.17;;;;;;;;;;5054887;28;20128;-72
2022/03/29 04:38:21;;;;;;;45.10;27.97;;;;;;;;;;5054543;28;20100;-72
2022/03/29 04:40:48;;;;;;;40.00;27.60;;;;;;;;;;5054849;28;20347;-72
2022/03/29 04:43:14;;;;;;;43.83;27.55;;;;;;;;;;5054796;28;20053;-72
2022/03/29 04:45:41;;;;;;;40.15;28.02;;;;;;;;;;5054693;28;20060;-72
2022/03/29 04:48:07;;;;;;;42.60;27.35;;;;;;;;;;5054585;28;20052;-72
2022/03/29 04:50:34;;;;;;;40.38;26.05;;;;;;;;;;5054636;28;20471;-72
2022/03/29 04:53:00;;;;;;;41.47;27.27;;;;;;;;;;5054491;28;20110;-72
2022/03/29 04:55:27;;;;;;;41.40;27.40;;;;;;;;;;5054248;28;20497;-72
2022/03/29 04:57:53;;;;;;;41.38;27.60;;;;;;;;;;5054247;28;20092;-72
2022/03/29 05:00:21;;;;;;;42.25;27.05;;;;;;;;;;5054448;28;20080;-72
2022/03/29 05:02:48;;;;;;;38.33;26.60;;;;;;;;;;5052916;28;20496;-72
2022/03/29 05:05:15;;;;;;;40.85;25.83;;;;;;;;;;5053153;28;20048;-72
2022/03/29 05:07:41;;;;;;;39.50;26.63;;;;;;;;;;5054026;28;20085;-72
2022/03/29 05:10:09;;;;;;;39.40;25.98;;;;;;;;;;5054113;28;20449;-72
2022/03/29 05:12:39;;;;;;;40.58;25.80;;;;;;;;;;5054108;28;20084;-72
2022/03/29 05:15:06;;;;;;;44.58;27.42;;;;;;;;;;5052682;28;20548;-72
2022/03/29 05:17:34;;;;;;;44.27;28.67;;;;;;;;;;5054049;28;20092;-72
2022/03/29 05:20:00;;;;;;;;;;;;;;;;;;5053363;28;20085;-72
2022/03/29 05:22:27;;;;;;;41.42;25.90;;;;;;;;;;5053721;28;20372;-72
2022/03/29 05:24:53;;;;;;;44.60;27.15;;;;;;;;;;5053856;28;20061;-72
2022/03/29 05:27:19;;;;;;;40.58;26.70;;;;;;;;;;5053656;28;20084;-72
2022/03/29 05:29:46;;;;;;;40.17;26.63;;;;;;;;;;5053785;28;20092;-72
2022/03/29 05:32:18;;;;;;;37.13;23.45;;;;;;;;;;5052530;28;20107;-72
2022/03/29 05:34:45;;;;;;;37.95;23.23;;;;;;;;;;5052416;28;20061;-72
2022/03/29 05:37:12;;;;;;;33.83;22.60;;;;;;;;;;5053432;28;20618;-72
2022/03/29 05:39:40;;;;;;;36.20;22.85;;;;;;;;;;5052173;28;20053;-72
2022/03/29 05:42:06;;;;;;;;;;;;;;;;;;5053777;28;20455;-72
2022/03/29 05:44:33;;;;;;;32.42;21.17;;;;;;;;;;5052490;28;19936;-72
2022/03/29 05:49:44;;;;;;;34.50;22.15;;;;;;;;;;5053569;28;20053;-72
2022/03/29 05:52:11;;;;;;;34.78;22.08;;;;;;;;;;5053004;28;20127;-71
2022/03/29 05:54:39;;;;;;;36.60;23.10;;;;;;;;;;5053227;28;20049;-72
2022/03/29 05:57:06;;;;;;;38.63;23.20;;;;;;;;;;5052229;28;20073;-71
2022/03/29 05:59:33;;;;;;;35.33;23.25;;;;;;;;;;5053406;28;20352;-73
2022/03/29 06:02:04;;;;;;;37.08;23.65;;;;;;;;;;5052157;28;20088;-72
2022/03/29 06:04:31;;;;;;;37.10;23.65;;;;;;;;;;5038327;28;20528;-71
2022/03/29 06:06:58;;;;;;;36.60;23.92;;;;;;;;;;5053304;28;20110;-71
2022/03/29 06:09:25;;;;;;;36.60;23.73;;;;;;;;;;5040355;28;20087;-71
2022/03/29 06:11:51;;;;;;;39.80;23.30;;;;;;;;;;5052800;28;20539;-71
2022/03/29 06:14:18;;;;;;;35.60;23.55;;;;;;;;;;5052867;28;20040;-71
2022/03/29 06:16:44;;;;;;;36.03;23.30;;;;;;;;;;5052616;28;20055;-71
2022/03/29 06:19:11;;;;;;;36.07;23.50;;;;;;;;;;5032529;28;20079;-71
2022/03/29 06:21:38;;;;;;;36.53;24.02;;;;;;;;;;5034330;28;20091;-71
2022/03/29 06:24:05;;;;;;;34.53;22.15;;;;;;;;;;5032309;28;20501;-71
2022/03/29 06:26:31;;;;;;;34.75;22.13;;;;;;;;;;5033564;28;20096;-71
2022/03/29 06:28:58;;;;;;;35.28;22.23;;;;;;;;;;5032169;28;20081;-71
2022/03/29 06:31:24;;;;;;;33.80;22.73;;;;;;;;;;5045919;28;20049;-71
2022/03/29 06:33:51;;;;;;;35.45;22.42;;;;;;;;;;5040975;28;20104;-70
2022/03/29 06:36:17;;;;;;;38.78;23.67;;;;;;;;;;5034880;28;20089;-73
2022/03/29 06:38:44;;;;;;;34.75;23.17;;;;;;;;;;5052575;28;20099;-74
2022/03/29 06:41:13;;;;;;;32.50;22.30;;;;;;;;;;5052559;28;20465;-74
2022/03/29 06:43:40;;;;;;;34.80;20.15;;;;;;;;;;5037759;28;20092;-72
2022/03/29 06:46:08;;;;;;;34.03;20.13;;;;;;;;;;5034855;28;20098;-73
2022/03/29 06:48:35;;;;;;;31.52;19.20;;;;;;;;;;5051842;28;20469;-71
2022/03/29 06:51:02;;;;;;;29.88;18.00;;;;;;;;;;5052169;28;20088;-71
2022/03/29 06:53:31;;;;;;;29.17;17.25;;;;;;;;;;5052411;28;20071;-74
2022/03/29 06:55:57;;;;;;;28.83;17.25;;;;;;;;;;5047379;28;20454;-71
2022/03/29 06:58:24;;;;;;;31.92;18.98;;;;;;;;;;5042568;28;20080;-72
2022/03/29 07:00:50;;;;;;;30.92;16.95;;;;;;;;;;5051871;28;20528;-72
2022/03/29 07:03:17;;;;;;;30.05;16.92;;;;;;;;;;5050991;28;20045;-72
2022/03/29 07:05:46;;;;;;;25.60;17.35;;;;;;;;;;5030196;28;20053;-72
2022/03/29 07:08:16;;;;;;;27.17;17.88;;;;;;;;;;5031046;28;20061;-72
2022/03/29 07:13:28;;;;;;;26.95;17.40;;;;;;;;;;5051865;28;20049;-70
2022/03/29 07:15:54;;;;;;;25.02;17.15;;;;;;;;;;5051720;28;20453;-72
2022/03/29 07:18:21;;;;;;;25.27;16.98;;;;;;;;;;5051829;28;20409;-73
2022/03/29 07:20:48;;;;;;;24.92;16.50;;;;;;;;;;5050772;28;20077;-72
2022/03/29 07:23:15;;;;;;;23.42;17.02;;;;;;;;;;5050559;28;20535;-71
2022/03/29 07:25:41;;;;;;;27.20;17.67;;;;;;;;;;5051547;28;20093;-71
2022/03/29 07:28:11;;;;;;;26.77;17.85;;;;;;;;;;5050203;28;20087;-71
2022/03/29 07:30:41;;;;;;;28.67;18.40;;;;;;;;;;5038600;28;20098;-71
2022/03/29 07:33:09;;;;;;;24.60;17.48;;;;;;;;;;5050190;28;20136;-71
2022/03/29 07:35:36;;;;;;;25.90;17.38;;;;;;;;;;5050246;28;20081;-73
2022/03/29 07:38:04;;;;;;;29.17;18.17;;;;;;;;;;5049722;28;20124;-73
2022/03/29 07:40:31;;;;;;;28.13;19.58;;;;;;;;;;5038042;28;20170;-72
2022/03/29 07:42:58;;;;;;;29.95;18.45;;;;;;;;;;5036053;28;20088;-72
2022/03/29 07:45:24;;;;;;;30.60;18.48;;;;;;;;;;5048762;28;20083;-72
2022/03/29 07:47:56;;;;;;;26.90;18.25;;;;;;;;;;5051478;28;20095;-72
2022/03/29 07:50:42;;;;;;;29.05;17.95;;;;;;;;;;5051309;28;20409;-72
2022/03/29 07:53:09;;;;;;;27.90;17.30;;;;;;;;;;5051044;28;20488;-72
2022/03/29 07:55:36;;;;;;;27.42;17.88;;;;;;;;;;5051384;28;20508;-72
2022/03/29 07:58:12;;;;;;;25.90;17.77;;;;;;;;;;5050286;28;20049;-72
2022/03/29 08:00:39;;;;;;;;;;;;;;;;;;5053151;28;20079;-72
2022/03/29 08:03:10;;;;;;;26.10;17.05;;;;;;;;;;5053885;28;19932;-72
2022/03/29 08:05:39;;;;;;;27.17;17.17;;;;;;;;;;5054168;28;20099;-72
2022/03/29 08:08:05;;;;;;;27.25;17.35;;;;;;;;;;5054183;28;20145;-72
2022/03/29 08:10:32;;;;;;;31.33;18.10;;;;;;;;;;5055159;28;20079;-72
2022/03/29 08:13:00;;;;;;;26.83;16.27;;;;;;;;;;5055392;28;20072;-72
2022/03/29 08:15:27;;;;;;;27.27;16.60;;;;;;;;;;5055030;28;20131;-72
2022/03/29 08:17:58;;;;;;;26.95;16.63;;;;;;;;;;5055151;28;20143;-72
2022/03/29 08:20:25;;;;;;;27.33;17.38;;;;;;;;;;5053839;28;20044;-72
2022/03/29 08:22:53;;;;;;;28.70;17.95;;;;;;;;;;5054039;28;20087;-72
2022/03/29 08:25:21;;;;;;;26.52;17.58;;;;;;;;;;5044025;28;20081;-71
2022/03/29 08:27:48;;;;;;;26.95;16.60;;;;;;;;;;5037925;28;20115;-71
2022/03/29 08:30:15;;;;;;;27.08;17.50;;;;;;;;;;5044668;28;20072;-71
2022/03/29 08:32:43;;;;;;;34.30;18.08;;;;;;;;;;5054481;28;20052;-71
2022/03/29 08:35:12;;;;;;;28.00;17.73;;;;;;;;;;5055062;28;20068;-71
2022/03/29 08:37:39;;;;;;;28.35;18.08;;;;;;;;;;5053491;28;20501;-71
2022/03/29 08:40:11;;;;;;;26.77;18.05;;;;;;;;;;5054527;28;20088;-72
2022/03/29 08:42:37;;;;;;;27.52;17.23;;;;;;;;;;5054676;28;20136;-71
2022/03/29 08:45:08;;;;;;;26.38;17.42;;;;;;;;;;5054714;28;20084;-72
2022/03/29 08:47:34;;;;;;;25.23;16.77;;;;;;;;;;5053555;28;20091;-71
2022/03/29 08:50:03;;;;;;;23.90;15.85;;;;;;;;;;5054613;28;20073;-72
2022/03/29 08:52:30;;;;;;;27.27;18.35;;;;;;;;;;5050441;28;20497;-71
2022/03/29 08:54:57;;;;;;;26.77;16.70;;;;;;;;;;5035868;28;20080;-71
2022/03/29 08:57:23;;;;;;;29.85;17.38;;;;;;;;;;5054559;28;20139;-66
2022/03/29 08:59:49;;;;;;;27.80;16.95;;;;;;;;;;5054307;28;20103;-66
2022/03/29 09:02:16;;;;;;;28.05;17.27;;;;;;;;;;5054500;28;20041;-66
2022/03/29 09:04:44;;;;;;;24.85;16.98;;;;;;;;;;5054492;28;20056;-66
2022/03/29 09:07:10;;;;;;;26.40;17.23;;;;;;;;;;5053741;28;20088;-66
2022/03/29 09:09:38;;;;;;;26.67;16.88;;;;;;;;;;5038091;28;20455;-66
2022/03/29 09:12:05;;;;;;;;;;;;;;;;;;5033628;28;20088;-66
2022/03/29 09:14:48;;;;;;;27.63;15.68;;;;;;;;;;5039656;28;20368;-72
2022/03/29 09:17:47;;;;;;;24.38;15.43;;;;;;;;;;5054061;28;20086;-71
2022/03/29 09:20:15;;;;;;;24.85;15.85;;;;;;;;;;5032870;28;20073;-72
2022/03/29 09:22:42;;;;;;;22.80;15.05;;;;;;;;;;5053760;28;20417;-71
2022/03/29 09:25:10;;;;;;;26.33;15.32;;;;;;;;;;5052843;28;20576;-72
2022/03/29 09:27:56;;;;;;;28.25;16.88;;;;;;;;;;5052342;28;20559;-71
2022/03/29 09:30:23;;;;;;;25.25;16.40;;;;;;;;;;5053994;28;20083;-72
2022/03/29 09:32:54;;;;;;;28.92;16.85;;;;;;;;;;5052554;28;20103;-71
2022/03/29 09:35:21;;;;;;;27.52;16.80;;;;;;;;;;5049049;28;20088;-72
2022/03/29 09:37:47;;;;;;;22.02;15.45;;;;;;;;;;5033257;28;20179;-72
2022/03/29 09:40:14;;;;;;;24.33;16.30;;;;;;;;;;5033113;28;20560;-72
2022/03/29 09:42:41;;;;;;;26.40;16.23;;;;;;;;;;5033292;28;20049;-72
2022/03/29 09:45:08;;;;;;;25.67;16.30;;;;;;;;;;5050736;28;20088;-72
2022/03/29 09:47:35;;;;;;;22.48;15.77;;;;;;;;;;5052518;28;20088;-72
2022/03/29 09:50:06;;;;;;;21.95;15.23;;;;;;;;;;5053725;28;20469;-72
2022/03/29 09:52:37;;;;;;;26.45;15.40;;;;;;;;;;5052312;28;20049;-71
2022/03/29 09:55:04;;;;;;;26.15;16.88;;;;;;;;;;5053355;28;20136;-72
2022/03/29 09:57:45;;;;;;;22.67;15.45;;;;;;;;;;5037782;28;20124;-72
2022/03/29 10:00:13;;;;;;;25.15;15.05;;;;;;;;;;5053676;28;20060;-71
2022/03/29 10:02:40;;;;;;;22.55;15.40;;;;;;;;;;5052974;28;20550;-72
2022/03/29 10:05:09;;;;;;;24.73;15.70;;;;;;;;;;5053073;28;20087;-72
2022/03/29 10:07:49;;;;;;;22.77;15.20;;;;;;;;;;5051997;28;20155;-71
2022/03/29 10:10:16;;;;;;;25.23;15.93;;;;;;;;;;5053540;28;20106;-71
2022/03/29 10:12:43;;;;;;;26.87;15.87;;;;;;;;;;5052810;28;20508;-71
2022/03/29 10:15:29;;;;;;;22.92;15.57;;;;;;;;;;5052969;28;20147;-71
2022/03/29 10:17:57;;;;;;;25.67;16.38;;;;;;;;;;5052927;28;20048;-72
2022/03/29 10:20:24;;;;;;;23.88;16.70;;;;;;;;;;5048922;28;20455;-72
2022/03/29 10:22:51;;;;;;;23.73;16.38;;;;;;;;;;5031451;28;20115;-71
2022/03/29 10:25:18;;;;;;;24.10;16.03;;;;;;;;;;5031886;28;20144;-72
2022/03/29 10:27:46;;;;;;;22.60;15.80;;;;;;;;;;5046432;28;20095;-71
2022/03/29 10:30:29;;;;;;;23.98;16.83;;;;;;;;;;5052503;28;20044;-72
2022/03/29 10:33:14;;;;;;;24.77;16.55;;;;;;;;;;5052589;28;20124;-72
2022/03/29 10:35:58;;;;;;;23.98;16.95;;;;;;;;;;5052420;28;20087;-72
2022/03/29 10:38:51;;;;;;;27.23;17.25;;;;;;;;;;5051062;28;20084;-71
2022/03/29 10:41:27;;;;;;;25.98;17.17;;;;;;;;;;5051359;28;20478;-71
2022/03/29 10:43:54;;;;;;;23.40;16.45;;;;;;;;;;5052141;28;20136;-71
2022/03/29 10:46:24;;;;;;;22.48;15.85;;;;;;;;;;5051094;28;20076;-72
2022/03/29 10:49:10;;;;;;;25.08;17.35;;;;;;;;;;5052465;28;20041;-72
2022/03/29 10:51:37;;;;;;;22.67;16.10;;;;;;;;;;5038882;28;20099;-71
2022/03/29 10:54:40;;;;;;;21.42;16.10;;;;;;;;;;5031689;28;20037;-72
2022/03/29 10:57:16;;;;;;;23.33;15.27;;;;;;;;;;5032073;28;20098;-71
2022/03/29 10:59:43;;;;;;;24.20;15.85;;;;;;;;;;5047958;28;20076;-72
2022/03/29 11:02:09;;;;;;;25.60;16.80;;;;;;;;;;5052146;28;20118;-75
2022/03/29 11:04:36;;;;;;;23.05;15.95;;;;;;;;;;5052176;28;20052;-74
2022/03/29 11:07:06;;;;;;;23.25;16.20;;;;;;;;;;5044819;28;20077;-74
2022/03/29 11:09:33;;;;;;;25.90;15.93;;;;;;;;;;5050522;28;20063;-73
2022/03/29 11:11:59;;;;;;;23.85;15.30;;;;;;;;;;5052059;28;20087;-73
2022/03/29 11:14:30;;;;;;;22.05;15.80;;;;;;;;;;5046996;28;20056;-73
2022/03/29 11:17:11;;;;;;;23.48;16.65;;;;;;;;;;5051189;28;20051;-73
2022/03/29 11:19:38;;;;;;;24.38;16.00;;;;;;;;;;5051430;28;20111;-73
2022/03/29 11:22:24;;;;;;;26.00;16.13;;;;;;;;;;5051589;28;20123;-73
2022/03/29 11:24:52;;;;;;;;;;;;;;;;;;5050631;28;20126;-73
2022/03/29 11:27:23;;;;;;;21.25;15.23;;;;;;;;;;5050935;28;20006;-73
2022/03/29 11:29:50;;;;;;;26.20;17.10;;;;;;;;;;5050857;28;20049;-73
2022/03/29 11:32:17;;;;;;;23.55;15.93;;;;;;;;;;5051044;28;20508;-73
2022/03/29 11:34:45;;;;;;;21.70;16.17;;;;;;;;;;5050432;28;20148;-73
2022/03/29 11:37:30;;;;;;;24.23;16.65;;;;;;;;;;5051106;28;20053;-73
2022/03/29 11:39:57;;;;;;;21.27;16.20;;;;;;;;;;5051105;28;20048;-73
2022/03/29 11:42:24;;;;;;;23.27;17.20;;;;;;;;;;5051108;28;20048;-73
2022/03/29 11:44:51;;;;;;;24.52;16.73;;;;;;;;;;5051100;28;20321;-73
2022/03/29 11:47:18;;;;;;;24.05;16.20;;;;;;;;;;5049790;28;20072;-73
2022/03/29 11:49:51;;;;;;;37.50;32.25;;;;;;;;;;5051153;28;20420;-73
2022/03/29 11:52:18;;;;;;;36.50;31.58;;;;;;;;;;5050747;28;20567;-73
2022/03/29 11:54:46;;;;;;;33.17;26.77;;;;;;;;;;5050929;28;20045;-73
2022/03/29 11:57:16;;;;;;;27.83;19.70;;;;;;;;;;5051101;28;20075;-73
2022/03/29 11:59:43;;;;;;;25.67;16.25;;;;;;;;;;5050942;28;20132;-73
2022/03/29 12:02:09;;;;;;;22.48;15.65;;;;;;;;;;5040279;28;20053;-73
2022/03/29 12:04:36;;;;;;;23.27;16.27;;;;;;;;;;5031518;28;20140;-73
2022/03/29 12:07:03;;;;;;;22.20;15.40;;;;;;;;;;5044334;28;20063;-73
2022/03/29 12:09:31;;;;;;;22.13;14.98;;;;;;;;;;5051403;28;20045;-73
2022/03/29 12:11:59;;;;;;;;;;;;;;;;;;5051864;28;20056;-73
2022/03/29 12:14:26;;;;;;;20.98;14.80;;;;;;;;;;5035324;28;19925;-69
2022/03/29 12:17:03;;;;;;;22.20;14.30;;;;;;;;;;5030863;28;20091;-69
2022/03/29 12:19:30;;;;;;;21.15;14.57;;;;;;;;;;5034986;28;20277;-71
2022/03/29 12:22:02;;;;;;;23.17;14.88;;;;;;;;;;5051343;28;20049;-69
2022/03/29 12:24:32;;;;;;;19.08;14.10;;;;;;;;;;5051337;28;20045;-69
2022/03/29 12:27:04;;;;;;;20.95;15.38;;;;;;;;;;5051267;28;20076;-68
2022/03/29 12:29:32;;;;;;;18.60;14.73;;;;;;;;;;5050055;28;20053;-69
2022/03/29 12:32:00;;;;;;;18.83;14.18;;;;;;;;;;5050984;28;20077;-69
2022/03/29 12:34:27;;;;;;;21.30;14.57;;;;;;;;;;5050842;28;20100;-69
2022/03/29 12:36:56;;;;;;;22.08;14.73;;;;;;;;;;5051090;28;20052;-69
2022/03/29 12:39:23;;;;;;;20.65;14.75;;;;;;;;;;5051040;28;20045;-69
2022/03/29 12:41:52;;;;;;;19.90;14.45;;;;;;;;;;5039315;28;20050;-69
2022/03/29 12:44:28;;;;;;;18.77;14.23;;;;;;;;;;5036487;28;20408;-69
2022/03/29 12:46:55;;;;;;;19.83;14.65;;;;;;;;;;5029357;28;20450;-69
2022/03/29 12:49:21;;;;;;;19.80;14.43;;;;;;;;;;5047671;28;20100;-70
2022/03/29 12:51:55;;;;;;;19.50;14.85;;;;;;;;;;5054584;28;20103;-69
2022/03/29 12:54:31;;;;;;;20.60;14.77;;;;;;;;;;5054624;28;20152;-69
2022/03/29 12:56:58;;;;;;;22.55;15.80;;;;;;;;;;5054594;28;20477;-69
2022/03/29 12:59:27;;;;;;;20.63;14.98;;;;;;;;;;5054311;28;20091;-69
2022/03/29 13:02:12;;;;;;;19.27;15.30;;;;;;;;;;5054405;28;20098;-69
2022/03/29 13:04:42;;;;;;;19.05;14.55;;;;;;;;;;5054563;28;20055;-69
2022/03/29 13:07:09;;;;;;;19.08;15.02;;;;;;;;;;5049848;28;20536;-69
2022/03/29 13:09:36;;;;;;;19.85;15.93;;;;;;;;;;5033990;28;20095;-70
2022/03/29 13:12:22;;;;;;;;;;;;;;;;;;5039641;28;20049;-69
2022/03/29 13:14:49;;;;;;;20.73;15.45;;;;;;;;;;5054221;28;19991;-69
2022/03/29 13:17:15;;;;;;;19.98;15.05;;;;;;;;;;5045322;28;20076;-69
2022/03/29 13:19:53;;;;;;;20.05;15.57;;;;;;;;;;5048434;28;20102;-69
2022/03/29 13:22:19;;;;;;;19.58;15.90;;;;;;;;;;5054105;28;20045;-69
2022/03/29 13:24:46;;;;;;;22.27;14.50;;;;;;;;;;5053897;28;20496;-69
2022/03/29 13:27:12;;;;;;;20.52;15.70;;;;;;;;;;5043644;28;20084;-69
2022/03/29 13:29:40;;;;;;;18.27;14.23;;;;;;;;;;5033380;28;20095;-69
2022/03/29 13:32:08;;;;;;;19.63;15.25;;;;;;;;;;5039993;28;20048;-69
2022/03/29 13:34:34;;;;;;;21.10;14.38;;;;;;;;;;5053509;28;20053;-69
2022/03/29 13:37:01;;;;;;;19.05;14.98;;;;;;;;;;5053819;28;20091;-74
2022/03/29 13:39:30;;;;;;;17.65;15.35;;;;;;;;;;5053561;28;20045;-74
2022/03/29 13:42:12;;;;;;;19.05;15.45;;;;;;;;;;5052551;28;20049;-74
2022/03/29 13:44:38;;;;;;;19.83;15.55;;;;;;;;;;5041447;28;20501;-74
2022/03/29 13:47:05;;;;;;;22.83;15.45;;;;;;;;;;5033071;28;20049;-75
2022/03/29 13:49:32;;;;;;;20.77;16.13;;;;;;;;;;5038939;28;20076;-75
2022/03/29 13:51:58;;;;;;;20.48;14.98;;;;;;;;;;5053513;28;20080;-75
2022/03/29 13:54:25;;;;;;;18.70;14.77;;;;;;;;;;5052021;28;20045;-75
2022/03/29 13:56:52;;;;;;;20.10;15.35;;;;;;;;;;5053448;28;20099;-75
2022/03/29 13:59:25;;;;;;;22.00;16.35;;;;;;;;;;5052360;28;20103;-74
2022/03/29 14:01:52;;;;;;;20.10;15.85;;;;;;;;;;5053296;28;20148;-74
2022/03/29 14:04:19;;;;;;;22.70;15.88;;;;;;;;;;5053361;28;20152;-75
2022/03/29 14:06:46;;;;;;;21.00;14.93;;;;;;;;;;5051815;28;20140;-75
2022/03/29 14:09:12;;;;;;;21.00;16.20;;;;;;;;;;5051830;28;20444;-74
2022/03/29 14:11:39;;;;;;;18.70;15.48;;;;;;;;;;5039257;28;20052;-74
2022/03/29 14:14:05;;;;;;;20.90;15.48;;;;;;;;;;5052323;28;20549;-74
2022/03/29 14:16:34;;;;;;;20.05;15.23;;;;;;;;;;5051477;28;20079;-75
2022/03/29 14:19:01;;;;;;;21.10;15.85;;;;;;;;;;5052612;28;20584;-75
2022/03/29 14:21:27;;;;;;;19.83;16.17;;;;;;;;;;5052518;28;20049;-75
2022/03/29 14:23:54;;;;;;;19.20;15.55;;;;;;;;;;5034384;28;20080;-74
2022/03/29 14:26:20;;;;;;;20.77;15.50;;;;;;;;;;5039367;28;20088;-73
2022/03/29 14:28:48;;;;;;;19.77;15.98;;;;;;;;;;5052269;28;20084;-75
2022/03/29 14:31:15;;;;;;;21.20;16.17;;;;;;;;;;5032416;28;20077;-75
2022/03/29 14:33:41;;;;;;;22.40;14.93;;;;;;;;;;5041331;28;20527;-75